Time;durP1;ratioP1;P1;durP2;ratioP2;P2;SDS_P1;SDS_P2;PMS_P1;PMS_P2;Temp;Humidity;BMP_temperature;BMP_pressure;BME280_temperature;BME280_humidity;BME280_pressure;Samples;Min_cycle;Max_cycle;Signal;HPM_P1;HPM_P2
2022/10/10 00:00:40;;;;;;;6.63;2.65;;;8.20;99.90;;;;;;5072832;28;20033;-78
2022/10/10 00:03:07;;;;;;;6.22;2.55;;;8.20;99.90;;;;;;5074914;28;20025;-78
2022/10/10 00:05:33;;;;;;;6.15;2.78;;;8.20;99.90;;;;;;5073702;28;20086;-77
2022/10/10 00:07:59;;;;;;;6.15;2.38;;;8.20;99.90;;;;;;5072953;28;20362;-78
2022/10/10 00:10:25;;;;;;;8.43;2.75;;;8.20;99.90;;;;;;5070126;28;20093;-78
2022/10/10 00:12:56;;;;;;;7.10;2.45;;;8.10;99.90;;;;;;5072765;28;20052;-77
2022/10/10 00:15:24;;;;;;;7.72;2.55;;;8.10;99.90;;;;;;5070991;28;20034;-76
2022/10/10 00:17:50;;;;;;;6.97;2.67;;;8.10;99.90;;;;;;5072870;28;20036;-77
2022/10/10 00:20:18;;;;;;;8.00;2.85;;;8.10;99.90;;;;;;5070296;28;20024;-76
2022/10/10 00:22:44;;;;;;;5.95;3.00;;;8.00;99.90;;;;;;5070758;28;20032;-77
2022/10/10 00:25:10;;;;;;;13.07;2.88;;;8.10;99.90;;;;;;5072478;28;20029;-77
2022/10/10 00:27:37;;;;;;;9.02;2.80;;;8.00;99.90;;;;;;5072746;28;20100;-77
2022/10/10 00:30:05;;;;;;;6.13;2.70;;;7.90;99.90;;;;;;5071749;28;20020;-77
2022/10/10 00:32:31;;;;;;;10.07;2.92;;;7.90;99.90;;;;;;5071996;28;20021;-76
2022/10/10 00:34:57;;;;;;;8.85;3.22;;;8.00;99.90;;;;;;5074532;28;20575;-78
2022/10/10 00:37:23;;;;;;;8.55;3.03;;;8.00;99.90;;;;;;5071827;28;20499;-77
2022/10/10 00:39:49;;;;;;;6.55;3.03;;;7.80;99.90;;;;;;5072464;28;20032;-77
2022/10/10 00:42:16;;;;;;;10.02;3.67;;;7.90;99.90;;;;;;5054191;28;20128;-77
2022/10/10 00:44:43;;;;;;;6.20;3.00;;;7.80;99.90;;;;;;5070290;28;20074;-78
2022/10/10 00:47:09;;;;;;;7.10;3.08;;;7.70;99.90;;;;;;5071538;28;20056;-78
2022/10/10 00:49:39;;;;;;;7.85;3.25;;;7.60;99.90;;;;;;5072126;28;20967;-78
2022/10/10 00:52:06;;;;;;;9.30;3.45;;;7.70;99.90;;;;;;5074749;28;20032;-78
2022/10/10 00:54:32;;;;;;;6.43;3.10;;;7.70;99.90;;;;;;5072737;28;20017;-78
2022/10/10 00:57:11;;;;;;;6.80;2.92;;;7.60;99.90;;;;;;5071856;28;20028;-78
2022/10/10 00:59:39;;;;;;;5.25;2.85;;;7.60;99.90;;;;;;5071862;28;20031;-78
2022/10/10 01:02:05;;;;;;;11.00;3.22;;;7.60;99.90;;;;;;5071813;28;20021;-78
2022/10/10 01:04:35;;;;;;;7.10;2.95;;;7.50;99.90;;;;;;5071819;28;20036;-77
2022/10/10 01:07:06;;;;;;;8.73;3.15;;;7.60;99.90;;;;;;5071700;28;20032;-78
2022/10/10 01:09:33;;;;;;;9.30;3.03;;;7.60;99.90;;;;;;5071506;28;20374;-79
2022/10/10 01:12:11;;;;;;;6.95;2.72;;;7.50;99.90;;;;;;5071053;28;20056;-78
2022/10/10 01:14:55;;;;;;;5.10;2.72;;;7.50;99.90;;;;;;5070330;28;20040;-78
2022/10/10 01:17:35;;;;;;;8.23;2.75;;;7.60;99.90;;;;;;5070181;28;20052;-77
2022/10/10 01:20:31;;;;;;;7.63;3.00;;;7.50;99.90;;;;;;5053313;28;20425;-78
2022/10/10 01:23:25;;;;;;;8.82;2.78;;;7.50;99.90;;;;;;5053422;28;20036;-78
2022/10/10 01:26:12;;;;;;;;;;;7.50;99.90;;;;;;5072175;28;20476;-77
2022/10/10 01:28:48;;;;;;;6.35;2.63;;;7.50;99.90;;;;;;5070968;28;19917;-78
2022/10/10 01:31:16;;;;;;;10.15;3.05;;;7.50;99.90;;;;;;5071670;28;20028;-77
2022/10/10 01:34:06;;;;;;;9.23;2.30;;;7.40;99.90;;;;;;5070997;28;20119;-78
2022/10/10 01:36:45;;;;;;;5.97;2.95;;;7.40;99.90;;;;;;5070852;28;20033;-79
2022/10/10 01:39:34;;;;;;;5.55;3.15;;;7.40;99.90;;;;;;5069911;28;20029;-78
2022/10/10 01:42:13;;;;;;;5.13;2.78;;;7.40;99.90;;;;;;5070978;28;20032;-78
2022/10/10 01:44:43;;;;;;;7.90;2.70;;;7.30;99.90;;;;;;5071331;28;20020;-78
2022/10/10 01:47:11;;;;;;;8.60;3.10;;;7.30;99.90;;;;;;5052513;28;20025;-77
2022/10/10 01:49:39;;;;;;;7.05;2.83;;;7.20;99.90;;;;;;5070979;28;20700;-78
2022/10/10 01:52:10;;;;;;;11.18;3.03;;;7.40;99.90;;;;;;5070255;28;20531;-78
2022/10/10 01:54:55;;;;;;;5.78;2.45;;;7.30;99.90;;;;;;5071065;28;20176;-79
2022/10/10 01:57:42;;;;;;;7.88;3.13;;;7.30;99.90;;;;;;5070887;28;20037;-78
2022/10/10 02:00:11;;;;;;;9.13;3.00;;;7.30;99.90;;;;;;5071174;28;20062;-79
2022/10/10 02:02:52;;;;;;;6.78;2.92;;;7.30;99.90;;;;;;5070811;28;20028;-78
2022/10/10 02:05:30;;;;;;;7.80;3.03;;;7.20;99.90;;;;;;5060247;28;20012;-78
2022/10/10 02:08:16;;;;;;;5.72;2.88;;;7.30;99.90;;;;;;5068755;28;20033;-78
2022/10/10 02:10:57;;;;;;;4.28;2.63;;;7.30;99.90;;;;;;5070299;28;20120;-78
2022/10/10 02:13:30;;;;;;;6.40;3.20;;;7.30;99.90;;;;;;5071579;28;20049;-78
2022/10/10 02:15:59;;;;;;;4.55;2.35;;;7.20;99.90;;;;;;5071088;28;20048;-79
2022/10/10 02:18:30;;;;;;;9.95;2.88;;;7.20;99.90;;;;;;5070691;28;20039;-76
2022/10/10 02:20:56;;;;;;;5.97;3.13;;;7.20;99.90;;;;;;5071167;28;20477;-77
2022/10/10 02:23:22;;;;;;;5.80;2.92;;;7.10;99.90;;;;;;5071033;28;20047;-79
2022/10/10 02:25:54;;;;;;;7.22;2.97;;;7.10;99.90;;;;;;5068249;28;20021;-77
2022/10/10 02:28:38;;;;;;;9.65;3.00;;;7.20;99.90;;;;;;5070855;28;20025;-77
2022/10/10 02:31:13;;;;;;;9.73;3.03;;;7.10;99.90;;;;;;5072589;28;20029;-77
2022/10/10 02:34:00;;;;;;;9.52;2.90;;;7.10;99.90;;;;;;5069355;28;20017;-78
2022/10/10 02:36:28;;;;;;;10.15;3.42;;;7.10;99.90;;;;;;5071343;28;20523;-77
2022/10/10 02:38:55;;;;;;;4.43;2.75;;;7.10;99.90;;;;;;5070862;28;20028;-78
2022/10/10 02:41:22;;;;;;;12.18;3.42;;;7.10;99.90;;;;;;5072143;28;20033;-77
2022/10/10 02:43:49;;;;;;;4.78;2.45;;;7.00;99.90;;;;;;5072325;28;20017;-77
2022/10/10 02:46:15;;;;;;;6.00;2.88;;;7.10;99.90;;;;;;5074924;28;20112;-78
2022/10/10 02:48:41;;;;;;;11.20;2.88;;;7.00;99.90;;;;;;5072932;28;20021;-78
2022/10/10 02:51:08;;;;;;;11.15;3.13;;;7.00;99.90;;;;;;5074126;28;20380;-76
2022/10/10 02:53:36;;;;;;;7.25;3.25;;;7.00;99.90;;;;;;5074212;28;20036;-77
2022/10/10 02:56:02;;;;;;;8.00;2.63;;;7.00;99.90;;;;;;5074351;28;20353;-78
2022/10/10 02:58:29;;;;;;;8.38;3.50;;;6.90;99.90;;;;;;5073812;28;20082;-77
2022/10/10 03:00:54;;;;;;;5.82;2.95;;;6.90;99.90;;;;;;5074206;28;20748;-79
2022/10/10 03:03:20;;;;;;;4.85;2.88;;;6.90;99.90;;;;;;5074812;28;20055;-77
2022/10/10 03:05:46;;;;;;;7.78;3.28;;;6.90;99.90;;;;;;5073796;28;20025;-77
2022/10/10 03:08:11;;;;;;;6.53;2.70;;;6.90;99.90;;;;;;5071593;28;20013;-77
2022/10/10 03:10:37;;;;;;;8.23;3.08;;;6.90;99.90;;;;;;5070232;28;20051;-77
2022/10/10 03:13:03;;;;;;;9.82;3.35;;;6.90;99.90;;;;;;5071443;28;20075;-79
2022/10/10 03:15:29;;;;;;;5.93;2.80;;;6.90;99.90;;;;;;5070048;28;20025;-78
2022/10/10 03:17:54;;;;;;;11.80;3.67;;;6.90;99.90;;;;;;5071861;28;20032;-77
2022/10/10 03:20:20;;;;;;;5.47;3.10;;;6.80;99.90;;;;;;5070743;28;20480;-77
2022/10/10 03:22:46;;;;;;;7.13;3.47;;;6.80;99.90;;;;;;5073769;28;20045;-78
2022/10/10 03:25:11;;;;;;;4.15;2.65;;;6.70;99.90;;;;;;5069776;28;20067;-77
2022/10/10 03:27:37;;;;;;;8.00;3.45;;;6.90;99.90;;;;;;5072712;28;20104;-75
2022/10/10 03:30:04;;;;;;;6.68;3.22;;;6.70;99.90;;;;;;5073988;28;20060;-77
2022/10/10 03:32:30;;;;;;;9.95;3.20;;;6.80;99.90;;;;;;5073626;28;20025;-78
2022/10/10 03:34:55;;;;;;;7.50;3.22;;;6.80;99.90;;;;;;5070906;28;20032;-78
2022/10/10 03:37:21;;;;;;;8.07;3.40;;;6.80;99.90;;;;;;5070094;28;20032;-78
2022/10/10 03:39:46;;;;;;;6.97;3.33;;;6.80;99.90;;;;;;5069747;28;20035;-77
2022/10/10 03:42:12;;;;;;;6.47;3.30;;;6.80;99.90;;;;;;5072591;28;20024;-77
2022/10/10 03:44:38;;;;;;;9.60;3.03;;;6.70;99.90;;;;;;5073798;28;20025;-78
2022/10/10 03:47:03;;;;;;;8.98;3.28;;;6.70;99.90;;;;;;5072979;28;20052;-77
2022/10/10 03:49:29;;;;;;;5.13;3.30;;;6.70;99.90;;;;;;5069643;28;20025;-77
2022/10/10 03:51:56;;;;;;;7.88;3.30;;;6.70;99.90;;;;;;5073363;28;20033;-78
2022/10/10 03:54:21;;;;;;;7.40;3.25;;;6.70;99.90;;;;;;5071670;28;20029;-78
2022/10/10 03:56:47;;;;;;;7.10;3.03;;;6.60;99.90;;;;;;5072352;28;20047;-77
2022/10/10 03:59:13;;;;;;;9.20;3.58;;;6.70;99.90;;;;;;5073297;28;20032;-77
2022/10/10 04:01:38;;;;;;;4.93;3.08;;;6.70;99.90;;;;;;5072749;28;20037;-78
2022/10/10 04:04:04;;;;;;;7.15;3.65;;;6.70;99.90;;;;;;5069040;28;20025;-80
2022/10/10 04:06:30;;;;;;;7.40;3.47;;;6.80;99.90;;;;;;5073031;28;20064;-78
2022/10/10 04:08:55;;;;;;;13.63;4.07;;;6.90;99.90;;;;;;5072683;28;20020;-78
2022/10/10 04:11:21;;;;;;;10.60;3.60;;;6.80;99.90;;;;;;5072199;28;20017;-78
2022/10/10 04:13:47;;;;;;;15.02;4.30;;;6.80;99.90;;;;;;5072818;28;20034;-78
2022/10/10 04:16:12;;;;;;;15.23;4.35;;;6.90;99.90;;;;;;5072287;28;20025;-78
2022/10/10 04:18:38;;;;;;;11.98;4.13;;;6.90;99.90;;;;;;5069976;28;20051;-78
2022/10/10 04:21:04;;;;;;;9.93;4.15;;;6.90;99.90;;;;;;5070729;28;20023;-78
2022/10/10 04:23:30;;;;;;;11.15;3.97;;;6.80;99.90;;;;;;5072168;28;20025;-78
2022/10/10 04:25:56;;;;;;;8.27;3.78;;;6.80;99.90;;;;;;5072501;28;20023;-78
2022/10/10 04:28:22;;;;;;;7.32;3.55;;;6.80;99.90;;;;;;5073650;28;20456;-78
2022/10/10 04:30:47;;;;;;;13.00;4.15;;;6.70;99.90;;;;;;5068040;28;20045;-78
2022/10/10 04:33:13;;;;;;;12.18;3.58;;;6.70;99.90;;;;;;5073112;28;20052;-78
2022/10/10 04:35:39;;;;;;;5.60;3.28;;;6.70;99.90;;;;;;5072189;28;20029;-77
2022/10/10 04:38:06;;;;;;;8.68;3.60;;;6.70;99.90;;;;;;5072168;28;20090;-78
2022/10/10 04:40:35;;;;;;;9.15;3.58;;;6.70;99.90;;;;;;5072262;28;20386;-78
2022/10/10 04:43:01;;;;;;;8.90;4.28;;;6.60;99.90;;;;;;5070589;28;20040;-77
2022/10/10 04:45:27;;;;;;;9.27;3.58;;;6.60;99.90;;;;;;5071885;28;20029;-78
2022/10/10 04:47:56;;;;;;;5.45;3.30;;;6.70;99.90;;;;;;5071083;28;20029;-78
2022/10/10 04:50:22;;;;;;;8.85;3.58;;;6.50;99.90;;;;;;5054616;28;20036;-77
2022/10/10 04:52:48;;;;;;;8.15;3.60;;;6.50;99.90;;;;;;5072235;28;20613;-76
2022/10/10 04:55:14;;;;;;;6.35;3.50;;;6.40;99.90;;;;;;5072275;28;20020;-75
2022/10/10 04:57:40;;;;;;;7.55;3.50;;;6.50;99.90;;;;;;5071237;28;20033;-76
2022/10/10 05:00:06;;;;;;;12.13;3.50;;;6.30;99.90;;;;;;5071564;28;20047;-75
2022/10/10 05:02:32;;;;;;;13.32;3.40;;;6.40;99.90;;;;;;5070631;28;20036;-75
2022/10/10 05:04:57;;;;;;;6.35;3.58;;;6.30;99.90;;;;;;5071530;28;20021;-77
2022/10/10 05:07:23;;;;;;;8.35;3.72;;;6.30;99.90;;;;;;5071158;28;20029;-76
2022/10/10 05:09:49;;;;;;;16.10;3.40;;;6.30;99.90;;;;;;5071914;28;20028;-75
2022/10/10 05:12:14;;;;;;;13.80;4.47;;;6.50;99.90;;;;;;5053157;28;20033;-76
2022/10/10 05:14:41;;;;;;;5.55;3.55;;;6.30;99.90;;;;;;5053765;28;20029;-76
2022/10/10 05:17:07;;;;;;;14.15;3.70;;;6.40;99.90;;;;;;5070057;28;20037;-76
2022/10/10 05:19:32;;;;;;;8.57;3.55;;;6.30;99.90;;;;;;5071834;28;20043;-77
2022/10/10 05:21:58;;;;;;;7.68;3.78;;;6.30;99.90;;;;;;5074893;28;20051;-76
2022/10/10 05:24:23;;;;;;;10.45;3.78;;;6.30;99.90;;;;;;5071325;28;20076;-78
2022/10/10 05:26:49;;;;;;;7.07;3.42;;;6.30;99.90;;;;;;5071025;28;20047;-76
2022/10/10 05:29:15;;;;;;;8.82;3.83;;;6.30;99.90;;;;;;5063604;28;20029;-77
2022/10/10 05:31:40;;;;;;;6.43;3.00;;;6.30;99.90;;;;;;5070339;28;20036;-77
2022/10/10 05:34:08;;;;;;;5.95;2.92;;;6.30;99.90;;;;;;5071125;28;20587;-76
2022/10/10 05:36:33;;;;;;;10.65;3.42;;;6.40;99.90;;;;;;5071056;28;20032;-78
2022/10/10 05:39:01;;;;;;;10.70;3.80;;;6.40;99.90;;;;;;5068463;28;20037;-77
2022/10/10 05:41:27;;;;;;;7.05;3.45;;;6.50;99.90;;;;;;5074607;28;20032;-76
2022/10/10 05:43:53;;;;;;;7.78;3.30;;;6.50;99.90;;;;;;5072641;28;20029;-77
2022/10/10 05:46:19;;;;;;;7.10;3.55;;;6.50;99.90;;;;;;5070117;28;20060;-77
2022/10/10 05:48:44;;;;;;;8.77;4.10;;;6.50;99.90;;;;;;5049057;28;20435;-76
2022/10/10 05:51:11;;;;;;;42.17;5.75;;;6.60;99.90;;;;;;5071146;28;20045;-76
2022/10/10 05:53:37;;;;;;;11.77;3.70;;;6.50;99.90;;;;;;5072668;28;20036;-76
2022/10/10 05:56:03;;;;;;;8.07;4.00;;;6.60;99.90;;;;;;5076046;28;20507;-76
2022/10/10 05:58:33;;;;;;;9.52;3.85;;;6.40;99.90;;;;;;5073734;28;20106;-77
2022/10/10 06:01:04;;;;;;;11.02;4.00;;;6.50;99.90;;;;;;5074024;28;20041;-77
2022/10/10 06:03:30;;;;;;;9.48;3.80;;;6.50;99.90;;;;;;5074455;28;20092;-76
2022/10/10 06:05:55;;;;;;;13.15;3.67;;;6.50;99.90;;;;;;5073071;28;20056;-77
2022/10/10 06:08:21;;;;;;;8.13;4.05;;;6.60;99.90;;;;;;5064186;28;20042;-78
2022/10/10 06:10:47;;;;;;;12.95;4.00;;;6.60;99.90;;;;;;5072749;28;20041;-77
2022/10/10 06:13:15;;;;;;;12.30;4.28;;;6.60;99.90;;;;;;5065795;28;20044;-76
2022/10/10 06:15:42;;;;;;;6.85;3.90;;;6.60;99.90;;;;;;5071420;28;20088;-76
2022/10/10 06:18:08;;;;;;;14.10;4.28;;;6.70;99.90;;;;;;5069227;28;20059;-75
2022/10/10 06:20:38;;;;;;;9.30;4.20;;;6.70;99.90;;;;;;5079018;28;20025;-76
2022/10/10 06:23:05;;;;;;;11.10;4.13;;;6.80;99.90;;;;;;5076119;28;20024;-78
2022/10/10 06:25:33;;;;;;;19.02;4.38;;;6.80;99.90;;;;;;5076412;28;20025;-75
2022/10/10 06:27:59;;;;;;;14.63;5.00;;;6.90;99.90;;;;;;5074361;28;20033;-77
2022/10/10 06:30:25;;;;;;;12.43;4.35;;;6.80;99.90;;;;;;5075955;28;20028;-77
2022/10/10 06:32:50;;;;;;;11.55;4.05;;;6.90;99.90;;;;;;5076094;28;20036;-76
2022/10/10 06:35:16;;;;;;;9.43;3.63;;;7.00;99.90;;;;;;5072771;28;20035;-77
2022/10/10 06:37:41;;;;;;;9.93;3.83;;;7.00;99.90;;;;;;5076727;28;20033;-76
2022/10/10 06:40:07;;;;;;;9.88;4.15;;;7.00;99.90;;;;;;5075612;28;20076;-76
2022/10/10 06:42:33;;;;;;;7.75;3.63;;;7.10;99.90;;;;;;5056401;28;20115;-77
2022/10/10 06:44:59;;;;;;;8.60;3.72;;;7.10;99.90;;;;;;5057107;28;20016;-76
2022/10/10 06:47:24;;;;;;;7.30;3.58;;;7.20;99.90;;;;;;5056301;28;20085;-76
2022/10/10 06:49:50;;;;;;;7.28;3.60;;;7.30;99.90;;;;;;5074238;28;20032;-75
2022/10/10 06:52:15;;;;;;;12.20;3.83;;;7.30;99.90;;;;;;5073056;28;20029;-76
2022/10/10 06:54:41;;;;;;;17.13;4.00;;;7.40;99.90;;;;;;5074305;28;20021;-73
2022/10/10 06:57:07;;;;;;;12.35;4.40;;;7.50;99.90;;;;;;5073258;28;20044;-76
2022/10/10 06:59:33;;;;;;;25.02;4.50;;;7.50;99.90;;;;;;5074843;28;20036;-78
2022/10/10 07:01:59;;;;;;;10.60;3.70;;;7.60;99.90;;;;;;5074614;28;20025;-76
2022/10/10 07:04:25;;;;;;;9.98;3.70;;;7.60;99.90;;;;;;5054855;28;20423;-77
2022/10/10 07:06:51;;;;;;;8.50;3.95;;;7.70;99.90;;;;;;5076926;28;20035;-74
2022/10/10 07:09:17;;;;;;;8.00;3.80;;;7.70;99.90;;;;;;5072426;28;20035;-74
2022/10/10 07:11:49;;;;;;;6.75;3.60;;;7.80;99.90;;;;;;5072684;28;20110;-75
2022/10/10 07:14:16;;;;;;;13.32;3.92;;;7.90;99.90;;;;;;5054104;28;20029;-75
2022/10/10 07:16:42;;;;;;;8.65;3.90;;;8.00;99.90;;;;;;5071385;28;20043;-75
2022/10/10 07:19:10;;;;;;;15.05;3.80;;;8.00;99.90;;;;;;5058674;28;20036;-77
2022/10/10 07:21:36;;;;;;;12.52;3.75;;;8.10;99.90;;;;;;5053888;28;20036;-76
2022/10/10 07:24:02;;;;;;;7.97;3.78;;;8.20;99.90;;;;;;5057713;28;20050;-78
2022/10/10 07:26:30;;;;;;;11.75;3.65;;;8.30;99.90;;;;;;5073553;28;20099;-74
2022/10/10 07:29:02;;;;;;;8.77;3.92;;;8.40;99.90;;;;;;5073447;28;20017;-77
2022/10/10 07:31:27;;;;;;;7.82;3.53;;;8.50;99.90;;;;;;5072416;28;20883;-75
2022/10/10 07:33:53;;;;;;;7.63;3.80;;;8.70;99.90;;;;;;5059316;28;20064;-74
2022/10/10 07:36:19;;;;;;;9.70;4.32;;;8.80;99.90;;;;;;5071953;28;20020;-75
2022/10/10 07:38:49;;;;;;;7.70;3.15;;;8.90;99.90;;;;;;5057583;28;20156;-76
2022/10/10 07:41:15;;;;;;;10.23;4.07;;;9.10;99.90;;;;;;5058875;28;20021;-75
2022/10/10 07:43:40;;;;;;;5.43;3.55;;;9.20;99.90;;;;;;5076050;28;20046;-77
2022/10/10 07:46:17;;;;;;;7.88;3.72;;;9.50;99.90;;;;;;5060160;28;20017;-77
2022/10/10 07:48:42;;;;;;;7.07;3.55;;;9.70;99.90;;;;;;5076476;28;20013;-75
2022/10/10 07:51:09;;;;;;;7.03;3.35;;;10.00;99.90;;;;;;5072658;28;20428;-74
2022/10/10 07:53:35;;;;;;;11.00;2.97;;;10.10;99.90;;;;;;5073291;28;20020;-77
2022/10/10 07:56:07;;;;;;;11.32;2.90;;;10.40;99.90;;;;;;5071062;28;20042;-75
2022/10/10 07:58:34;;;;;;;7.90;2.97;;;10.50;99.90;;;;;;5061192;28;20044;-76
2022/10/10 08:01:09;;;;;;;5.03;2.47;;;10.60;99.90;;;;;;5073325;28;20032;-76
2022/10/10 08:03:35;;;;;;;12.52;3.05;;;10.70;99.90;;;;;;5073438;28;20024;-77
2022/10/10 08:06:09;;;;;;;10.85;3.13;;;10.70;99.90;;;;;;5072356;28;20025;-75
2022/10/10 08:08:36;;;;;;;8.48;3.40;;;10.70;99.90;;;;;;5061975;28;20036;-78
2022/10/10 08:11:04;;;;;;;7.60;3.17;;;10.80;99.90;;;;;;5071739;28;20092;-76
2022/10/10 08:13:30;;;;;;;8.43;3.10;;;10.80;99.90;;;;;;5072609;28;20044;-76
2022/10/10 08:15:56;;;;;;;7.18;3.25;;;10.90;99.90;;;;;;5072431;28;20055;-75
2022/10/10 08:18:22;;;;;;;9.77;4.40;;;11.00;99.90;;;;;;5065917;28;20072;-75
2022/10/10 08:21:01;;;;;;;16.13;4.25;;;11.00;99.90;;;;;;5072447;28;20037;-75
2022/10/10 08:23:27;;;;;;;7.10;3.55;;;11.10;99.90;;;;;;5055319;28;20144;-76
2022/10/10 08:25:53;;;;;;;9.25;3.97;;;11.10;99.90;;;;;;5072136;28;20056;-74
2022/10/10 08:28:19;;;;;;;5.78;3.38;;;11.20;99.90;;;;;;5072320;28;20143;-75
2022/10/10 08:30:45;;;;;;;6.00;3.45;;;11.30;99.90;;;;;;5072613;28;20025;-75
2022/10/10 08:33:10;;;;;;;8.90;3.88;;;11.40;99.90;;;;;;5057753;28;20083;-77
2022/10/10 08:35:37;;;;;;;7.18;3.45;;;11.40;99.90;;;;;;5071771;28;20077;-78
2022/10/10 08:38:03;;;;;;;9.25;3.53;;;11.50;99.90;;;;;;5072238;28;20029;-75
2022/10/10 08:40:30;;;;;;;9.77;3.65;;;11.50;99.90;;;;;;5073841;28;20025;-72
2022/10/10 08:43:01;;;;;;;8.98;3.33;;;11.60;99.90;;;;;;5070343;28;20029;-76
2022/10/10 08:45:27;;;;;;;8.48;3.55;;;11.70;99.90;;;;;;5074916;28;20054;-75
2022/10/10 08:47:58;;;;;;;16.85;4.07;;;11.70;99.90;;;;;;5073166;28;20036;-73
2022/10/10 08:50:35;;;;;;;8.45;3.08;;;11.80;99.90;;;;;;5055170;28;20060;-75
2022/10/10 08:53:12;;;;;;;9.98;3.65;;;11.90;99.90;;;;;;5072487;28;20033;-72
2022/10/10 08:55:42;;;;;;;10.25;3.97;;;12.00;99.90;;;;;;5057040;28;20024;-75
2022/10/10 08:58:25;;;;;;;6.20;3.15;;;12.10;99.90;;;;;;5073077;28;20029;-74
2022/10/10 09:00:58;;;;;;;7.03;3.20;;;12.20;99.90;;;;;;5069774;28;20092;-75
2022/10/10 09:03:33;;;;;;;6.90;3.03;;;12.30;99.90;;;;;;5071611;28;20065;-75
2022/10/10 09:06:13;;;;;;;7.60;2.75;;;12.40;99.90;;;;;;5072169;28;20040;-73
2022/10/10 09:08:45;;;;;;;7.75;3.60;;;12.50;99.90;;;;;;5070468;28;20060;-73
2022/10/10 09:11:19;;;;;;;9.88;3.80;;;12.60;99.90;;;;;;5072606;28;20178;-78
2022/10/10 09:14:05;;;;;;;;;;;12.70;99.90;;;;;;5072721;28;20059;-76
2022/10/10 09:16:35;;;;;;;7.43;3.67;;;12.70;99.90;;;;;;5072600;28;20775;-76
2022/10/10 09:19:10;;;;;;;13.15;3.75;;;12.80;99.90;;;;;;5053933;28;20031;-73
2022/10/10 09:21:38;;;;;;;9.57;3.88;;;12.90;99.90;;;;;;5071655;28;20024;-72
2022/10/10 09:24:16;;;;;;;6.35;3.60;;;13.10;99.90;;;;;;5071349;28;20009;-75
2022/10/10 09:26:54;;;;;;;9.73;3.85;;;13.20;99.90;;;;;;5053127;28;20020;-71
2022/10/10 09:29:48;;;;;;;18.25;4.38;;;13.30;99.90;;;;;;5072715;28;20040;-73
2022/10/10 09:32:26;;;;;;;9.10;3.90;;;13.40;99.90;;;;;;5072795;28;20029;-75
2022/10/10 09:35:11;;;;;;;9.23;3.83;;;13.40;99.90;;;;;;5068338;28;20063;-73
2022/10/10 09:37:40;;;;;;;10.82;3.97;;;13.50;99.90;;;;;;5073636;28;20036;-77
2022/10/10 09:40:13;;;;;;;6.68;3.88;;;13.70;99.90;;;;;;5072177;28;20043;-78
2022/10/10 09:42:42;;;;;;;11.98;3.78;;;13.70;99.90;;;;;;5053821;28;20052;-76
2022/10/10 09:45:21;;;;;;;18.95;3.97;;;13.80;99.90;;;;;;5053764;28;20043;-75
2022/10/10 09:47:50;;;;;;;10.45;4.18;;;13.70;99.90;;;;;;5069099;28;20035;-75
2022/10/10 09:50:16;;;;;;;7.35;4.10;;;13.70;99.90;;;;;;5071904;28;20025;-70
2022/10/10 09:52:46;;;;;;;10.63;4.80;;;13.70;99.90;;;;;;5065587;28;20024;-79
2022/10/10 09:55:29;;;;;;;7.18;3.53;;;13.70;99.90;;;;;;5072871;28;20028;-76
2022/10/10 09:58:04;;;;;;;8.25;4.45;;;13.80;99.90;;;;;;5073860;28;20069;-77
2022/10/10 10:00:36;;;;;;;11.50;4.47;;;13.80;99.90;;;;;;5073942;28;20021;-77
2022/10/10 10:03:16;;;;;;;12.02;4.32;;;13.80;99.90;;;;;;5070470;28;20036;-76
2022/10/10 10:05:58;;;;;;;7.03;4.05;;;13.90;99.90;;;;;;5073955;28;20088;-78
2022/10/10 10:08:30;;;;;;;11.35;4.32;;;14.00;99.90;;;;;;5075355;28;20036;-79
2022/10/10 10:10:57;;;;;;;15.90;4.05;;;14.00;99.90;;;;;;5074941;28;20021;-79
2022/10/10 10:13:35;;;;;;;7.88;4.18;;;14.10;99.90;;;;;;5071374;28;20079;-77
2022/10/10 10:16:10;;;;;;;11.27;4.30;;;14.10;99.90;;;;;;5073369;28;20028;-74
2022/10/10 10:18:54;;;;;;;8.02;4.05;;;14.10;99.90;;;;;;5074779;28;20025;-75
2022/10/10 10:21:22;;;;;;;11.45;4.43;;;14.20;99.90;;;;;;5074323;28;20516;-75
2022/10/10 10:23:56;;;;;;;6.75;3.95;;;14.30;99.90;;;;;;5075998;28;20041;-77
2022/10/10 10:26:40;;;;;;;13.68;4.68;;;14.50;99.90;;;;;;5076142;28;20171;-76
2022/10/10 10:29:27;;;;;;;9.00;4.03;;;14.60;99.90;;;;;;5056044;28;20025;-78
2022/10/10 10:32:28;;;;;;;15.80;4.88;;;14.70;99.90;;;;;;5073164;28;20048;-80
2022/10/10 10:35:18;;;;;;;12.57;4.63;;;14.80;99.90;;;;;;5072660;28;20017;-75
2022/10/10 10:37:52;;;;;;;8.43;3.97;;;15.10;99.90;;;;;;5074381;28;20047;-73
2022/10/10 10:40:37;;;;;;;;;;;15.30;99.90;;;;;;5072371;28;20071;-74
2022/10/10 10:43:28;;;;;;;16.48;5.03;;;15.40;99.90;;;;;;5072424;28;19913;-79
2022/10/10 10:46:17;;;;;;;13.30;4.45;;;15.50;99.90;;;;;;5074010;28;20133;-79
2022/10/10 10:48:55;;;;;;;7.35;4.32;;;15.70;99.90;;;;;;5073819;28;20484;-75
2022/10/10 10:51:44;;;;;;;9.98;4.55;;;15.80;99.90;;;;;;5073593;28;20544;-78
2022/10/10 10:54:43;;;;;;;18.65;4.57;;;15.90;99.90;;;;;;5074786;28;20091;-77
2022/10/10 10:57:12;;;;;;;10.90;4.45;;;16.00;99.90;;;;;;5055462;28;20101;-74
2022/10/10 10:59:44;;;;;;;8.05;3.80;;;16.20;99.90;;;;;;5074395;28;20067;-77
2022/10/10 11:02:25;;;;;;;10.65;4.57;;;16.40;99.90;;;;;;5073872;28;20024;-78
2022/10/10 11:05:04;;;;;;;9.60;5.00;;;16.50;99.90;;;;;;5073116;28;20084;-76
2022/10/10 11:07:55;;;;;;;9.52;4.10;;;16.60;99.90;;;;;;5074068;28;20044;-76
2022/10/10 11:10:40;;;;;;;12.13;4.75;;;16.70;99.90;;;;;;5072950;28;20061;-77
2022/10/10 11:13:05;;;;;;;8.63;4.28;;;16.80;99.90;;;;;;5070510;28;20074;-77
2022/10/10 11:15:40;;;;;;;11.40;4.55;;;16.90;99.90;;;;;;5074497;28;20021;-78
2022/10/10 11:18:38;;;;;;;20.10;4.13;;;16.90;99.90;;;;;;5071331;28;20091;-74
2022/10/10 11:21:16;;;;;;;20.42;4.75;;;17.00;99.90;;;;;;5070623;28;20110;-74
2022/10/10 11:23:48;;;;;;;8.55;4.13;;;17.00;99.90;;;;;;5068937;28;20041;-76
2022/10/10 11:26:23;;;;;;;16.35;5.05;;;17.10;99.90;;;;;;5070732;28;20040;-76
2022/10/10 11:28:54;;;;;;;9.80;4.80;;;17.10;99.90;;;;;;5065036;28;20041;-76
2022/10/10 11:31:51;;;;;;;11.48;4.47;;;17.30;99.90;;;;;;5071914;28;20456;-77
2022/10/10 11:34:22;;;;;;;14.15;4.32;;;17.40;99.90;;;;;;5050917;28;20040;-75
2022/10/10 11:36:50;;;;;;;9.73;4.60;;;17.60;99.90;;;;;;5070663;28;20028;-77
2022/10/10 11:39:41;;;;;;;8.35;4.10;;;17.60;99.90;;;;;;5070854;28;20021;-77
2022/10/10 11:42:22;;;;;;;10.25;4.55;;;17.70;99.90;;;;;;5071906;28;20119;-79
2022/10/10 11:45:01;;;;;;;12.23;4.63;;;17.90;99.90;;;;;;5070683;28;20041;-75
2022/10/10 11:48:14;;;;;;;9.02;4.38;;;18.00;99.90;;;;;;5055087;28;20029;-75
2022/10/10 11:50:42;;;;;;;7.63;3.90;;;18.00;99.90;;;;;;5067489;28;20174;-77
2022/10/10 11:53:19;;;;;;;12.10;4.38;;;18.10;99.90;;;;;;5062633;28;20178;-79
2022/10/10 11:55:56;;;;;;;13.18;4.00;;;18.30;99.90;;;;;;5075932;28;20024;-75
2022/10/10 11:58:39;;;;;;;8.73;4.15;;;18.40;99.90;;;;;;5075110;28;20041;-75
2022/10/10 12:01:15;;;;;;;7.97;3.58;;;18.40;99.90;;;;;;5074245;28;20032;-75
2022/10/10 12:03:40;;;;;;;13.32;3.63;;;18.40;99.90;;;;;;5072989;28;20029;-76
2022/10/10 12:06:40;;;;;;;9.13;3.33;;;18.50;99.90;;;;;;5070068;28;20031;-76
2022/10/10 12:09:44;;;;;;;7.85;3.55;;;18.60;99.90;;;;;;5071330;28;20108;-76
2022/10/10 12:12:18;;;;;;;10.25;4.13;;;18.80;99.90;;;;;;5022166;28;20045;-78
2022/10/10 12:14:52;;;;;;;12.60;4.38;;;18.90;99.90;;;;;;5073010;28;20021;-76
2022/10/10 12:17:28;;;;;;;12.77;6.70;;;19.10;99.90;;;;;;5072422;28;20055;-76
2022/10/10 12:20:06;;;;;;;10.57;5.10;;;19.10;99.90;;;;;;5054269;28;20121;-76
2022/10/10 12:22:32;;;;;;;14.60;5.18;;;19.00;99.90;;;;;;5073381;28;20021;-77
2022/10/10 12:25:06;;;;;;;13.27;5.32;;;18.90;99.90;;;;;;5073699;28;20041;-75
2022/10/10 12:27:42;;;;;;;7.68;3.88;;;18.80;99.90;;;;;;5073225;28;20110;-78
2022/10/10 12:30:08;;;;;;;7.97;3.75;;;18.60;99.90;;;;;;5065820;28;20037;-75
2022/10/10 12:32:41;;;;;;;9.10;3.72;;;18.40;99.90;;;;;;5072292;28;20103;-78
2022/10/10 12:35:37;;;;;;;6.00;3.47;;;18.30;99.90;;;;;;5054106;28;20087;-77
2022/10/10 12:38:15;;;;;;;15.45;3.55;;;18.10;99.90;;;;;;5064282;28;20059;-74
2022/10/10 12:40:56;;;;;;;8.30;3.75;;;18.00;99.90;;;;;;5071038;28;20051;-72
2022/10/10 12:43:41;;;;;;;10.90;3.30;;;18.00;99.90;;;;;;5072448;28;20040;-76
2022/10/10 12:46:33;;;;;;;8.52;3.38;;;18.00;99.90;;;;;;5054222;28;20084;-75
2022/10/10 12:49:00;;;;;;;12.57;3.45;;;17.90;99.90;;;;;;5070703;28;20029;-77
2022/10/10 12:51:30;;;;;;;7.63;3.50;;;17.90;99.90;;;;;;5073597;28;20029;-76
2022/10/10 12:53:58;;;;;;;6.00;3.25;;;17.90;99.90;;;;;;5071084;28;20032;-74
2022/10/10 12:56:37;;;;;;;11.30;3.78;;;17.90;99.90;;;;;;5064372;28;20029;-74
2022/10/10 12:59:04;;;;;;;7.53;3.35;;;17.90;99.90;;;;;;5074010;28;20036;-74
2022/10/10 13:01:34;;;;;;;7.40;3.63;;;17.90;99.90;;;;;;5057054;28;20040;-76
2022/10/10 13:04:00;;;;;;;6.55;2.97;;;17.90;99.90;;;;;;5063932;28;20973;-72
2022/10/10 13:06:38;;;;;;;9.00;3.30;;;18.00;99.90;;;;;;5064188;28;20048;-78
2022/10/10 13:09:18;;;;;;;7.18;3.38;;;18.00;99.90;;;;;;5073014;28;20033;-76
2022/10/10 13:11:56;;;;;;;6.65;3.17;;;18.10;99.90;;;;;;5057023;28;20053;-76